sensor_id;sensor_type;location;lat;lon;timestamp;P1;durP1;ratioP1;P2;durP2;ratioP2
57319;SDS011;43158;51.026;18.190;2022-07-23T00:01:56;19.10;;;17.10;;
57319;SDS011;43158;51.026;18.190;2022-07-23T00:04:41;18.50;;;16.50;;
57319;SDS011;43158;51.026;18.190;2022-07-23T00:07:26;18.70;;;17.00;;
57319;SDS011;43158;51.026;18.190;2022-07-23T00:10:12;20.00;;;17.70;;
57319;SDS011;43158;51.026;18.190;2022-07-23T00:13:00;23.40;;;18.70;;
57319;SDS011;43158;51.026;18.190;2022-07-23T00:15:51;20.60;;;18.60;;
57319;SDS011;43158;51.026;18.190;2022-07-23T00:18:36;20.30;;;17.90;;
57319;SDS011;43158;51.026;18.190;2022-07-23T00:21:26;20.80;;;18.30;;
57319;SDS011;43158;51.026;18.190;2022-07-23T00:24:12;20.10;;;17.30;;
57319;SDS011;43158;51.026;18.190;2022-07-23T00:26:57;19.70;;;17.70;;
57319;SDS011;43158;51.026;18.190;2022-07-23T00:29:43;19.90;;;18.00;;
57319;SDS011;43158;51.026;18.190;2022-07-23T00:32:28;21.60;;;17.10;;
57319;SDS011;43158;51.026;18.190;2022-07-23T00:35:14;21.40;;;17.60;;
57319;SDS011;43158;51.026;18.190;2022-07-23T00:38:10;18.30;;;16.50;;
57319;SDS011;43158;51.026;18.190;2022-07-23T00:40:57;18.30;;;16.50;;
57319;SDS011;43158;51.026;18.190;2022-07-23T00:43:42;17.60;;;15.70;;
57319;SDS011;43158;51.026;18.190;2022-07-23T00:46:33;18.50;;;16.70;;
57319;SDS011;43158;51.026;18.190;2022-07-23T00:49:22;21.80;;;16.80;;
57319;SDS011;43158;51.026;18.190;2022-07-23T00:54:54;22.20;;;17.50;;
57319;SDS011;43158;51.026;18.190;2022-07-23T00:57:40;19.70;;;17.70;;
57319;SDS011;43158;51.026;18.190;2022-07-23T01:00:30;24.00;;;18.20;;
57319;SDS011;43158;51.026;18.190;2022-07-23T01:03:23;21.60;;;18.20;;
57319;SDS011;43158;51.026;18.190;2022-07-23T01:06:14;25.00;;;17.60;;
57319;SDS011;43158;51.026;18.190;2022-07-23T01:09:07;23.00;;;17.90;;
57319;SDS011;43158;51.026;18.190;2022-07-23T01:11:58;23.60;;;18.50;;
57319;SDS011;43158;51.026;18.190;2022-07-23T01:14:45;19.60;;;17.50;;
57319;SDS011;43158;51.026;18.190;2022-07-23T01:17:38;18.90;;;16.80;;
57319;SDS011;43158;51.026;18.190;2022-07-23T01:20:29;19.10;;;17.10;;
57319;SDS011;43158;51.026;18.190;2022-07-23T01:23:19;22.80;;;17.10;;
57319;SDS011;43158;51.026;18.190;2022-07-23T01:26:05;19.10;;;17.50;;
57319;SDS011;43158;51.026;18.190;2022-07-23T01:28:50;19.20;;;17.40;;
57319;SDS011;43158;51.026;18.190;2022-07-23T01:31:37;20.70;;;17.90;;
57319;SDS011;43158;51.026;18.190;2022-07-23T01:34:22;19.60;;;17.20;;
57319;SDS011;43158;51.026;18.190;2022-07-23T01:37:12;19.40;;;16.80;;
57319;SDS011;43158;51.026;18.190;2022-07-23T01:40:02;20.90;;;17.80;;
57319;SDS011;43158;51.026;18.190;2022-07-23T01:42:50;19.20;;;17.00;;
57319;SDS011;43158;51.026;18.190;2022-07-23T01:45:37;18.80;;;15.20;;
57319;SDS011;43158;51.026;18.190;2022-07-23T01:48:28;17.80;;;15.90;;
57319;SDS011;43158;51.026;18.190;2022-07-23T01:51:15;18.30;;;16.80;;
57319;SDS011;43158;51.026;18.190;2022-07-23T01:54:02;17.80;;;16.00;;
57319;SDS011;43158;51.026;18.190;2022-07-23T01:56:48;22.00;;;17.80;;
57319;SDS011;43158;51.026;18.190;2022-07-23T01:59:39;19.30;;;17.30;;
57319;SDS011;43158;51.026;18.190;2022-07-23T02:02:30;19.90;;;17.80;;
57319;SDS011;43158;51.026;18.190;2022-07-23T02:05:15;20.00;;;17.70;;
57319;SDS011;43158;51.026;18.190;2022-07-23T02:08:02;19.50;;;17.60;;
57319;SDS011;43158;51.026;18.190;2022-07-23T02:10:52;18.40;;;16.70;;
57319;SDS011;43158;51.026;18.190;2022-07-23T02:13:41;19.60;;;17.60;;
57319;SDS011;43158;51.026;18.190;2022-07-23T02:16:27;19.80;;;17.90;;
57319;SDS011;43158;51.026;18.190;2022-07-23T02:19:14;18.20;;;16.00;;
57319;SDS011;43158;51.026;18.190;2022-07-23T02:22:00;20.60;;;16.90;;
57319;SDS011;43158;51.026;18.190;2022-07-23T02:24:50;19.70;;;17.80;;
57319;SDS011;43158;51.026;18.190;2022-07-23T02:27:40;18.90;;;17.10;;
57319;SDS011;43158;51.026;18.190;2022-07-23T02:30:30;19.50;;;17.50;;
57319;SDS011;43158;51.026;18.190;2022-07-23T02:33:24;22.60;;;17.40;;
57319;SDS011;43158;51.026;18.190;2022-07-23T02:36:10;20.40;;;18.60;;
57319;SDS011;43158;51.026;18.190;2022-07-23T02:38:56;19.80;;;17.90;;
57319;SDS011;43158;51.026;18.190;2022-07-23T02:41:42;19.80;;;17.80;;
57319;SDS011;43158;51.026;18.190;2022-07-23T02:44:29;20.40;;;18.60;;
57319;SDS011;43158;51.026;18.190;2022-07-23T02:47:19;20.30;;;18.10;;
57319;SDS011;43158;51.026;18.190;2022-07-23T02:50:05;21.30;;;19.00;;
57319;SDS011;43158;51.026;18.190;2022-07-23T02:52:51;23.80;;;21.10;;
57319;SDS011;43158;51.026;18.190;2022-07-23T02:55:38;23.30;;;21.40;;
57319;SDS011;43158;51.026;18.190;2022-07-23T02:58:24;23.10;;;20.90;;
57319;SDS011;43158;51.026;18.190;2022-07-23T03:01:10;23.40;;;21.20;;
57319;SDS011;43158;51.026;18.190;2022-07-23T03:04:01;21.90;;;19.90;;
57319;SDS011;43158;51.026;18.190;2022-07-23T03:06:47;22.40;;;18.60;;
57319;SDS011;43158;51.026;18.190;2022-07-23T03:09:32;19.10;;;17.30;;
57319;SDS011;43158;51.026;18.190;2022-07-23T03:12:17;19.30;;;17.70;;
57319;SDS011;43158;51.026;18.190;2022-07-23T03:15:03;20.60;;;18.90;;
57319;SDS011;43158;51.026;18.190;2022-07-23T03:17:49;20.60;;;18.50;;
57319;SDS011;43158;51.026;18.190;2022-07-23T03:20:35;20.60;;;18.60;;
57319;SDS011;43158;51.026;18.190;2022-07-23T03:23:22;21.70;;;19.80;;
57319;SDS011;43158;51.026;18.190;2022-07-23T03:26:07;19.30;;;17.50;;
57319;SDS011;43158;51.026;18.190;2022-07-23T03:28:52;20.70;;;18.80;;
57319;SDS011;43158;51.026;18.190;2022-07-23T03:31:38;20.60;;;18.70;;
57319;SDS011;43158;51.026;18.190;2022-07-23T03:34:25;20.10;;;18.00;;
57319;SDS011;43158;51.026;18.190;2022-07-23T03:37:12;20.20;;;18.20;;
57319;SDS011;43158;51.026;18.190;2022-07-23T03:39:59;20.50;;;18.40;;
57319;SDS011;43158;51.026;18.190;2022-07-23T03:45:38;20.00;;;18.30;;
57319;SDS011;43158;51.026;18.190;2022-07-23T03:48:24;23.40;;;19.90;;
57319;SDS011;43158;51.026;18.190;2022-07-23T03:51:09;20.10;;;18.10;;
57319;SDS011;43158;51.026;18.190;2022-07-23T03:56:44;18.80;;;17.00;;
57319;SDS011;43158;51.026;18.190;2022-07-23T03:59:30;20.80;;;17.10;;
57319;SDS011;43158;51.026;18.190;2022-07-23T04:02:15;19.40;;;17.50;;
57319;SDS011;43158;51.026;18.190;2022-07-23T04:05:01;18.70;;;16.90;;
57319;SDS011;43158;51.026;18.190;2022-07-23T04:07:46;19.20;;;17.60;;
57319;SDS011;43158;51.026;18.190;2022-07-23T04:10:31;20.30;;;18.30;;
57319;SDS011;43158;51.026;18.190;2022-07-23T04:13:17;19.80;;;18.10;;
57319;SDS011;43158;51.026;18.190;2022-07-23T04:16:02;19.70;;;17.70;;
57319;SDS011;43158;51.026;18.190;2022-07-23T04:18:48;19.00;;;17.50;;
57319;SDS011;43158;51.026;18.190;2022-07-23T04:21:33;19.10;;;17.10;;
57319;SDS011;43158;51.026;18.190;2022-07-23T04:24:22;18.50;;;16.70;;
57319;SDS011;43158;51.026;18.190;2022-07-23T04:27:07;21.30;;;19.40;;
57319;SDS011;43158;51.026;18.190;2022-07-23T04:29:52;20.10;;;18.20;;
57319;SDS011;43158;51.026;18.190;2022-07-23T04:32:37;20.50;;;18.70;;
57319;SDS011;43158;51.026;18.190;2022-07-23T04:35:23;21.20;;;18.80;;
57319;SDS011;43158;51.026;18.190;2022-07-23T04:38:09;19.10;;;17.50;;
57319;SDS011;43158;51.026;18.190;2022-07-23T04:40:54;19.40;;;17.60;;
57319;SDS011;43158;51.026;18.190;2022-07-23T04:43:40;17.50;;;16.00;;
57319;SDS011;43158;51.026;18.190;2022-07-23T04:46:25;20.30;;;17.70;;
57319;SDS011;43158;51.026;18.190;2022-07-23T04:49:10;20.90;;;18.70;;
57319;SDS011;43158;51.026;18.190;2022-07-23T04:51:56;19.70;;;17.80;;
57319;SDS011;43158;51.026;18.190;2022-07-23T04:54:42;18.10;;;16.70;;
57319;SDS011;43158;51.026;18.190;2022-07-23T04:57:31;18.90;;;17.20;;
57319;SDS011;43158;51.026;18.190;2022-07-23T05:00:17;19.30;;;16.10;;
57319;SDS011;43158;51.026;18.190;2022-07-23T05:03:02;17.30;;;15.70;;
57319;SDS011;43158;51.026;18.190;2022-07-23T05:05:47;17.70;;;16.10;;
57319;SDS011;43158;51.026;18.190;2022-07-23T05:08:32;17.10;;;15.70;;
57319;SDS011;43158;51.026;18.190;2022-07-23T05:11:17;16.80;;;15.10;;
57319;SDS011;43158;51.026;18.190;2022-07-23T05:14:04;17.00;;;15.40;;
57319;SDS011;43158;51.026;18.190;2022-07-23T05:16:49;16.30;;;14.70;;
57319;SDS011;43158;51.026;18.190;2022-07-23T05:19:34;16.10;;;14.50;;
57319;SDS011;43158;51.026;18.190;2022-07-23T05:22:20;14.70;;;13.40;;
57319;SDS011;43158;51.026;18.190;2022-07-23T05:25:06;13.70;;;12.60;;
57319;SDS011;43158;51.026;18.190;2022-07-23T05:27:51;14.30;;;12.90;;
57319;SDS011;43158;51.026;18.190;2022-07-23T05:30:36;13.30;;;12.00;;
57319;SDS011;43158;51.026;18.190;2022-07-23T05:33:21;13.30;;;12.20;;
57319;SDS011;43158;51.026;18.190;2022-07-23T05:36:07;13.30;;;12.00;;
57319;SDS011;43158;51.026;18.190;2022-07-23T05:38:52;12.20;;;11.00;;
57319;SDS011;43158;51.026;18.190;2022-07-23T05:41:42;15.00;;;10.50;;
57319;SDS011;43158;51.026;18.190;2022-07-23T05:44:28;9.60;;;8.80;;
57319;SDS011;43158;51.026;18.190;2022-07-23T05:47:14;9.80;;;8.20;;
57319;SDS011;43158;51.026;18.190;2022-07-23T05:50:00;8.20;;;7.40;;
57319;SDS011;43158;51.026;18.190;2022-07-23T05:52:46;9.30;;;8.50;;
57319;SDS011;43158;51.026;18.190;2022-07-23T05:55:33;12.60;;;8.70;;
57319;SDS011;43158;51.026;18.190;2022-07-23T05:58:19;8.50;;;7.70;;
57319;SDS011;43158;51.026;18.190;2022-07-23T06:01:04;9.20;;;8.40;;
57319;SDS011;43158;51.026;18.190;2022-07-23T06:03:49;9.90;;;8.90;;
57319;SDS011;43158;51.026;18.190;2022-07-23T06:06:34;9.80;;;8.40;;
57319;SDS011;43158;51.026;18.190;2022-07-23T06:09:19;10.10;;;8.90;;
57319;SDS011;43158;51.026;18.190;2022-07-23T06:12:05;9.70;;;8.80;;
57319;SDS011;43158;51.026;18.190;2022-07-23T06:14:51;10.20;;;9.10;;
57319;SDS011;43158;51.026;18.190;2022-07-23T06:17:36;12.30;;;8.60;;
57319;SDS011;43158;51.026;18.190;2022-07-23T06:20:26;11.00;;;9.00;;
57319;SDS011;43158;51.026;18.190;2022-07-23T06:23:11;9.10;;;8.30;;
57319;SDS011;43158;51.026;18.190;2022-07-23T06:25:57;9.60;;;8.70;;
57319;SDS011;43158;51.026;18.190;2022-07-23T06:28:42;9.30;;;8.40;;
57319;SDS011;43158;51.026;18.190;2022-07-23T06:31:27;9.20;;;8.40;;
57319;SDS011;43158;51.026;18.190;2022-07-23T06:34:17;11.40;;;10.20;;
57319;SDS011;43158;51.026;18.190;2022-07-23T06:37:01;9.20;;;8.40;;
57319;SDS011;43158;51.026;18.190;2022-07-23T06:39:47;11.90;;;8.90;;
57319;SDS011;43158;51.026;18.190;2022-07-23T06:42:32;10.40;;;9.20;;
57319;SDS011;43158;51.026;18.190;2022-07-23T06:45:21;9.80;;;8.90;;
57319;SDS011;43158;51.026;18.190;2022-07-23T06:48:07;9.90;;;8.80;;
57319;SDS011;43158;51.026;18.190;2022-07-23T06:50:52;13.50;;;8.90;;
57319;SDS011;43158;51.026;18.190;2022-07-23T06:53:37;9.60;;;8.80;;
57319;SDS011;43158;51.026;18.190;2022-07-23T06:56:22;10.40;;;8.70;;
57319;SDS011;43158;51.026;18.190;2022-07-23T06:59:07;9.90;;;9.00;;
57319;SDS011;43158;51.026;18.190;2022-07-23T07:01:53;10.60;;;9.70;;
57319;SDS011;43158;51.026;18.190;2022-07-23T07:04:40;10.40;;;9.10;;
57319;SDS011;43158;51.026;18.190;2022-07-23T07:07:31;13.00;;;11.20;;
57319;SDS011;43158;51.026;18.190;2022-07-23T07:10:19;10.30;;;9.40;;
57319;SDS011;43158;51.026;18.190;2022-07-23T07:13:04;9.10;;;8.40;;
57319;SDS011;43158;51.026;18.190;2022-07-23T07:15:50;9.00;;;8.30;;
57319;SDS011;43158;51.026;18.190;2022-07-23T07:18:35;8.90;;;8.00;;
57319;SDS011;43158;51.026;18.190;2022-07-23T07:21:20;9.30;;;7.30;;
57319;SDS011;43158;51.026;18.190;2022-07-23T07:24:06;9.60;;;8.70;;
57319;SDS011;43158;51.026;18.190;2022-07-23T07:26:52;9.10;;;8.10;;
57319;SDS011;43158;51.026;18.190;2022-07-23T07:29:37;7.70;;;7.10;;
57319;SDS011;43158;51.026;18.190;2022-07-23T07:32:22;8.20;;;7.50;;
57319;SDS011;43158;51.026;18.190;2022-07-23T07:35:07;7.70;;;7.00;;
57319;SDS011;43158;51.026;18.190;2022-07-23T07:37:53;7.60;;;6.90;;
57319;SDS011;43158;51.026;18.190;2022-07-23T07:40:38;8.60;;;7.00;;
57319;SDS011;43158;51.026;18.190;2022-07-23T07:43:23;8.20;;;7.00;;
57319;SDS011;43158;51.026;18.190;2022-07-23T07:46:08;7.70;;;6.90;;
57319;SDS011;43158;51.026;18.190;2022-07-23T07:48:54;7.60;;;6.80;;
57319;SDS011;43158;51.026;18.190;2022-07-23T07:51:38;7.50;;;6.60;;
57319;SDS011;43158;51.026;18.190;2022-07-23T07:54:24;7.70;;;6.50;;
57319;SDS011;43158;51.026;18.190;2022-07-23T07:57:09;7.30;;;6.00;;
57319;SDS011;43158;51.026;18.190;2022-07-23T07:59:54;8.10;;;6.40;;
57319;SDS011;43158;51.026;18.190;2022-07-23T08:02:57;5.90;;;5.30;;
57319;SDS011;43158;51.026;18.190;2022-07-23T08:05:42;6.90;;;6.10;;
57319;SDS011;43158;51.026;18.190;2022-07-23T08:08:28;7.20;;;6.60;;
57319;SDS011;43158;51.026;18.190;2022-07-23T08:11:13;5.80;;;5.20;;
57319;SDS011;43158;51.026;18.190;2022-07-23T08:13:58;6.00;;;5.40;;
57319;SDS011;43158;51.026;18.190;2022-07-23T08:16:44;6.70;;;5.90;;
57319;SDS011;43158;51.026;18.190;2022-07-23T08:19:29;6.50;;;5.90;;
57319;SDS011;43158;51.026;18.190;2022-07-23T08:22:14;6.90;;;6.20;;
57319;SDS011;43158;51.026;18.190;2022-07-23T08:25:01;6.50;;;5.80;;
57319;SDS011;43158;51.026;18.190;2022-07-23T08:27:45;6.90;;;6.30;;
57319;SDS011;43158;51.026;18.190;2022-07-23T08:30:31;6.00;;;5.50;;
57319;SDS011;43158;51.026;18.190;2022-07-23T08:33:17;8.80;;;6.00;;
57319;SDS011;43158;51.026;18.190;2022-07-23T08:36:02;5.80;;;5.10;;
57319;SDS011;43158;51.026;18.190;2022-07-23T08:38:48;6.10;;;5.50;;
57319;SDS011;43158;51.026;18.190;2022-07-23T08:41:33;7.10;;;6.50;;
57319;SDS011;43158;51.026;18.190;2022-07-23T08:44:18;8.10;;;5.30;;
57319;SDS011;43158;51.026;18.190;2022-07-23T08:47:04;10.70;;;5.40;;
57319;SDS011;43158;51.026;18.190;2022-07-23T08:49:48;6.00;;;4.50;;
57319;SDS011;43158;51.026;18.190;2022-07-23T08:52:33;6.90;;;5.10;;
57319;SDS011;43158;51.026;18.190;2022-07-23T08:55:19;5.00;;;4.60;;
57319;SDS011;43158;51.026;18.190;2022-07-23T08:58:05;7.40;;;4.80;;
57319;SDS011;43158;51.026;18.190;2022-07-23T09:00:50;5.40;;;4.90;;
57319;SDS011;43158;51.026;18.190;2022-07-23T09:03:36;6.00;;;4.60;;
57319;SDS011;43158;51.026;18.190;2022-07-23T09:06:22;7.00;;;4.70;;
57319;SDS011;43158;51.026;18.190;2022-07-23T09:09:20;4.80;;;4.40;;
57319;SDS011;43158;51.026;18.190;2022-07-23T09:12:06;5.80;;;4.90;;
57319;SDS011;43158;51.026;18.190;2022-07-23T09:14:52;6.60;;;4.40;;
57319;SDS011;43158;51.026;18.190;2022-07-23T09:17:38;5.30;;;4.60;;
57319;SDS011;43158;51.026;18.190;2022-07-23T09:20:25;5.50;;;5.10;;
57319;SDS011;43158;51.026;18.190;2022-07-23T09:23:10;8.40;;;5.00;;
57319;SDS011;43158;51.026;18.190;2022-07-23T09:25:55;6.30;;;4.90;;
57319;SDS011;43158;51.026;18.190;2022-07-23T09:31:49;5.20;;;4.70;;
57319;SDS011;43158;51.026;18.190;2022-07-23T09:34:35;5.50;;;4.90;;
57319;SDS011;43158;51.026;18.190;2022-07-23T09:37:23;6.20;;;5.70;;
57319;SDS011;43158;51.026;18.190;2022-07-23T09:40:09;7.10;;;5.30;;
57319;SDS011;43158;51.026;18.190;2022-07-23T09:43:00;6.40;;;5.80;;
57319;SDS011;43158;51.026;18.190;2022-07-23T09:45:45;6.10;;;5.60;;
57319;SDS011;43158;51.026;18.190;2022-07-23T09:48:30;7.70;;;6.10;;
57319;SDS011;43158;51.026;18.190;2022-07-23T09:51:16;6.60;;;5.30;;
57319;SDS011;43158;51.026;18.190;2022-07-23T09:54:05;5.10;;;4.70;;
57319;SDS011;43158;51.026;18.190;2022-07-23T09:56:51;7.20;;;6.50;;
57319;SDS011;43158;51.026;18.190;2022-07-23T09:59:39;9.00;;;6.60;;
57319;SDS011;43158;51.026;18.190;2022-07-23T10:02:24;6.40;;;5.90;;
57319;SDS011;43158;51.026;18.190;2022-07-23T10:05:09;6.40;;;5.90;;
57319;SDS011;43158;51.026;18.190;2022-07-23T10:07:54;8.80;;;5.90;;
57319;SDS011;43158;51.026;18.190;2022-07-23T10:10:39;7.40;;;5.60;;
57319;SDS011;43158;51.026;18.190;2022-07-23T10:13:24;9.00;;;5.30;;
57319;SDS011;43158;51.026;18.190;2022-07-23T10:16:28;7.80;;;5.90;;
57319;SDS011;43158;51.026;18.190;2022-07-23T10:19:12;6.70;;;5.20;;
57319;SDS011;43158;51.026;18.190;2022-07-23T10:28:24;12.80;;;6.30;;
57319;SDS011;43158;51.026;18.190;2022-07-23T10:31:30;8.00;;;5.30;;
57319;SDS011;43158;51.026;18.190;2022-07-23T10:34:36;5.70;;;4.70;;
57319;SDS011;43158;51.026;18.190;2022-07-23T10:43:01;8.60;;;4.60;;
57319;SDS011;43158;51.026;18.190;2022-07-23T10:45:46;4.40;;;4.00;;
57319;SDS011;43158;51.026;18.190;2022-07-23T10:48:31;6.80;;;4.20;;
57319;SDS011;43158;51.026;18.190;2022-07-23T10:51:16;4.50;;;3.80;;
57319;SDS011;43158;51.026;18.190;2022-07-23T10:54:01;8.30;;;5.00;;
57319;SDS011;43158;51.026;18.190;2022-07-23T11:03:00;10.20;;;5.70;;
57319;SDS011;43158;51.026;18.190;2022-07-23T11:05:46;6.70;;;5.70;;
57319;SDS011;43158;51.026;18.190;2022-07-23T11:08:31;6.20;;;5.50;;
57319;SDS011;43158;51.026;18.190;2022-07-23T11:11:15;8.70;;;5.80;;
57319;SDS011;43158;51.026;18.190;2022-07-23T11:14:00;19.60;;;5.70;;
57319;SDS011;43158;51.026;18.190;2022-07-23T11:16:48;8.60;;;5.50;;
57319;SDS011;43158;51.026;18.190;2022-07-23T11:19:42;7.50;;;5.60;;
57319;SDS011;43158;51.026;18.190;2022-07-23T11:22:59;7.00;;;6.00;;
57319;SDS011;43158;51.026;18.190;2022-07-23T11:25:48;5.60;;;4.90;;
57319;SDS011;43158;51.026;18.190;2022-07-23T11:28:33;6.80;;;5.60;;
57319;SDS011;43158;51.026;18.190;2022-07-23T11:31:19;6.50;;;5.80;;
57319;SDS011;43158;51.026;18.190;2022-07-23T11:37:35;9.60;;;6.70;;
57319;SDS011;43158;51.026;18.190;2022-07-23T11:40:25;10.70;;;6.40;;
57319;SDS011;43158;51.026;18.190;2022-07-23T11:43:11;6.60;;;6.00;;
57319;SDS011;43158;51.026;18.190;2022-07-23T11:45:58;12.20;;;6.60;;
57319;SDS011;43158;51.026;18.190;2022-07-23T11:49:00;8.60;;;7.50;;
57319;SDS011;43158;51.026;18.190;2022-07-23T11:51:46;7.70;;;6.90;;
57319;SDS011;43158;51.026;18.190;2022-07-23T11:54:31;12.90;;;7.20;;
57319;SDS011;43158;51.026;18.190;2022-07-23T11:57:23;12.00;;;7.30;;
57319;SDS011;43158;51.026;18.190;2022-07-23T12:00:11;10.00;;;7.20;;
57319;SDS011;43158;51.026;18.190;2022-07-23T12:03:01;8.00;;;7.10;;
57319;SDS011;43158;51.026;18.190;2022-07-23T12:05:46;7.80;;;6.70;;
57319;SDS011;43158;51.026;18.190;2022-07-23T12:08:31;10.90;;;6.40;;
57319;SDS011;43158;51.026;18.190;2022-07-23T12:11:16;174.60;;;20.20;;
57319;SDS011;43158;51.026;18.190;2022-07-23T12:14:01;84.00;;;14.20;;
57319;SDS011;43158;51.026;18.190;2022-07-23T12:17:07;15.30;;;6.90;;
57319;SDS011;43158;51.026;18.190;2022-07-23T12:19:54;16.00;;;7.80;;
57319;SDS011;43158;51.026;18.190;2022-07-23T12:22:41;9.20;;;8.10;;
57319;SDS011;43158;51.026;18.190;2022-07-23T12:25:38;9.10;;;8.30;;
57319;SDS011;43158;51.026;18.190;2022-07-23T12:28:30;10.70;;;9.10;;
57319;SDS011;43158;51.026;18.190;2022-07-23T12:31:30;11.30;;;9.90;;
57319;SDS011;43158;51.026;18.190;2022-07-23T12:34:21;11.00;;;10.10;;
57319;SDS011;43158;51.026;18.190;2022-07-23T12:37:06;11.30;;;10.20;;
57319;SDS011;43158;51.026;18.190;2022-07-23T12:39:51;10.50;;;9.60;;
57319;SDS011;43158;51.026;18.190;2022-07-23T12:42:48;11.10;;;10.10;;
57319;SDS011;43158;51.026;18.190;2022-07-23T12:45:45;11.30;;;10.40;;
57319;SDS011;43158;51.026;18.190;2022-07-23T12:51:30;12.50;;;11.40;;
57319;SDS011;43158;51.026;18.190;2022-07-23T12:54:16;12.70;;;11.60;;
57319;SDS011;43158;51.026;18.190;2022-07-23T12:57:01;13.20;;;12.20;;
57319;SDS011;43158;51.026;18.190;2022-07-23T12:59:46;12.50;;;11.60;;
57319;SDS011;43158;51.026;18.190;2022-07-23T13:02:44;12.80;;;11.20;;
57319;SDS011;43158;51.026;18.190;2022-07-23T13:05:30;11.30;;;10.40;;
57319;SDS011;43158;51.026;18.190;2022-07-23T13:08:15;13.40;;;12.30;;
57319;SDS011;43158;51.026;18.190;2022-07-23T13:11:01;12.70;;;11.30;;
57319;SDS011;43158;51.026;18.190;2022-07-23T13:13:46;12.00;;;10.70;;
57319;SDS011;43158;51.026;18.190;2022-07-23T13:16:31;12.10;;;11.20;;
57319;SDS011;43158;51.026;18.190;2022-07-23T13:19:17;12.90;;;11.80;;
57319;SDS011;43158;51.026;18.190;2022-07-23T13:22:02;14.00;;;12.60;;
57319;SDS011;43158;51.026;18.190;2022-07-23T13:24:46;14.00;;;12.60;;
57319;SDS011;43158;51.026;18.190;2022-07-23T13:27:31;15.70;;;14.00;;
57319;SDS011;43158;51.026;18.190;2022-07-23T13:30:38;13.20;;;11.90;;
57319;SDS011;43158;51.026;18.190;2022-07-23T13:33:24;14.20;;;13.00;;
57319;SDS011;43158;51.026;18.190;2022-07-23T13:36:09;14.60;;;13.10;;
57319;SDS011;43158;51.026;18.190;2022-07-23T13:38:54;19.30;;;16.30;;
57319;SDS011;43158;51.026;18.190;2022-07-23T13:41:42;21.40;;;19.50;;
57319;SDS011;43158;51.026;18.190;2022-07-23T13:44:30;22.30;;;19.80;;
57319;SDS011;43158;51.026;18.190;2022-07-23T13:47:14;26.00;;;23.10;;
57319;SDS011;43158;51.026;18.190;2022-07-23T13:50:02;29.10;;;25.90;;
57319;SDS011;43158;51.026;18.190;2022-07-23T13:52:47;29.10;;;26.40;;
57319;SDS011;43158;51.026;18.190;2022-07-23T13:55:33;32.20;;;29.30;;
57319;SDS011;43158;51.026;18.190;2022-07-23T13:58:18;36.30;;;32.90;;
57319;SDS011;43158;51.026;18.190;2022-07-23T14:01:03;37.50;;;33.80;;
57319;SDS011;43158;51.026;18.190;2022-07-23T14:03:48;40.90;;;37.00;;
57319;SDS011;43158;51.026;18.190;2022-07-23T14:06:32;45.10;;;41.00;;
57319;SDS011;43158;51.026;18.190;2022-07-23T14:09:18;48.10;;;43.20;;
57319;SDS011;43158;51.026;18.190;2022-07-23T14:12:03;53.90;;;48.90;;
57319;SDS011;43158;51.026;18.190;2022-07-23T14:14:49;51.60;;;46.70;;
57319;SDS011;43158;51.026;18.190;2022-07-23T14:17:33;48.80;;;44.60;;
57319;SDS011;43158;51.026;18.190;2022-07-23T14:20:21;53.80;;;49.30;;
57319;SDS011;43158;51.026;18.190;2022-07-23T14:23:07;55.10;;;49.70;;
57319;SDS011;43158;51.026;18.190;2022-07-23T14:25:51;54.80;;;50.00;;
57319;SDS011;43158;51.026;18.190;2022-07-23T14:28:36;51.40;;;46.70;;
57319;SDS011;43158;51.026;18.190;2022-07-23T14:31:21;49.70;;;45.20;;
57319;SDS011;43158;51.026;18.190;2022-07-23T14:34:05;51.30;;;46.80;;
57319;SDS011;43158;51.026;18.190;2022-07-23T14:36:50;52.60;;;47.70;;
57319;SDS011;43158;51.026;18.190;2022-07-23T14:39:34;52.40;;;48.00;;
57319;SDS011;43158;51.026;18.190;2022-07-23T14:42:19;52.40;;;47.70;;
57319;SDS011;43158;51.026;18.190;2022-07-23T14:45:04;52.10;;;47.60;;
57319;SDS011;43158;51.026;18.190;2022-07-23T14:47:50;53.90;;;49.30;;
57319;SDS011;43158;51.026;18.190;2022-07-23T14:50:35;49.30;;;45.00;;
57319;SDS011;43158;51.026;18.190;2022-07-23T14:53:20;43.60;;;39.90;;
57319;SDS011;43158;51.026;18.190;2022-07-23T14:56:04;40.20;;;36.60;;
57319;SDS011;43158;51.026;18.190;2022-07-23T14:58:50;44.90;;;40.70;;
57319;SDS011;43158;51.026;18.190;2022-07-23T15:01:35;37.20;;;33.80;;
57319;SDS011;43158;51.026;18.190;2022-07-23T15:04:20;30.50;;;28.00;;
57319;SDS011;43158;51.026;18.190;2022-07-23T15:07:05;47.60;;;43.30;;
57319;SDS011;43158;51.026;18.190;2022-07-23T15:09:50;49.80;;;45.30;;
57319;SDS011;43158;51.026;18.190;2022-07-23T15:12:34;47.10;;;42.80;;
57319;SDS011;43158;51.026;18.190;2022-07-23T15:15:20;52.00;;;43.70;;
57319;SDS011;43158;51.026;18.190;2022-07-23T15:18:09;49.50;;;45.00;;
57319;SDS011;43158;51.026;18.190;2022-07-23T15:21:00;48.90;;;44.50;;
57319;SDS011;43158;51.026;18.190;2022-07-23T15:23:45;47.50;;;43.20;;
57319;SDS011;43158;51.026;18.190;2022-07-23T15:26:30;48.50;;;44.10;;
57319;SDS011;43158;51.026;18.190;2022-07-23T15:29:16;43.70;;;39.60;;
57319;SDS011;43158;51.026;18.190;2022-07-23T15:32:00;45.00;;;41.20;;
57319;SDS011;43158;51.026;18.190;2022-07-23T15:34:45;42.70;;;39.20;;
57319;SDS011;43158;51.026;18.190;2022-07-23T15:37:29;43.90;;;40.00;;
57319;SDS011;43158;51.026;18.190;2022-07-23T15:40:15;41.50;;;37.70;;
57319;SDS011;43158;51.026;18.190;2022-07-23T15:43:01;38.10;;;34.70;;
57319;SDS011;43158;51.026;18.190;2022-07-23T15:45:46;41.80;;;38.30;;
57319;SDS011;43158;51.026;18.190;2022-07-23T15:48:33;39.80;;;36.40;;
57319;SDS011;43158;51.026;18.190;2022-07-23T15:51:20;42.10;;;38.60;;
57319;SDS011;43158;51.026;18.190;2022-07-23T15:54:04;40.10;;;36.70;;
57319;SDS011;43158;51.026;18.190;2022-07-23T15:56:49;38.10;;;34.70;;
57319;SDS011;43158;51.026;18.190;2022-07-23T15:59:35;47.00;;;42.60;;
57319;SDS011;43158;51.026;18.190;2022-07-23T16:02:20;48.30;;;44.20;;
57319;SDS011;43158;51.026;18.190;2022-07-23T16:05:06;48.20;;;44.30;;
57319;SDS011;43158;51.026;18.190;2022-07-23T16:07:50;47.60;;;43.50;;
57319;SDS011;43158;51.026;18.190;2022-07-23T16:10:35;51.60;;;46.70;;
57319;SDS011;43158;51.026;18.190;2022-07-23T16:13:20;51.90;;;47.40;;
57319;SDS011;43158;51.026;18.190;2022-07-23T16:16:04;52.60;;;47.90;;
57319;SDS011;43158;51.026;18.190;2022-07-23T16:18:50;53.20;;;48.40;;
57319;SDS011;43158;51.026;18.190;2022-07-23T16:21:34;51.40;;;46.60;;
57319;SDS011;43158;51.026;18.190;2022-07-23T16:24:19;51.50;;;46.70;;
57319;SDS011;43158;51.026;18.190;2022-07-23T16:27:04;50.60;;;45.60;;
57319;SDS011;43158;51.026;18.190;2022-07-23T16:29:48;55.70;;;50.30;;
57319;SDS011;43158;51.026;18.190;2022-07-23T16:32:34;52.30;;;47.80;;
57319;SDS011;43158;51.026;18.190;2022-07-23T16:35:19;56.70;;;51.20;;
57319;SDS011;43158;51.026;18.190;2022-07-23T16:38:03;53.90;;;48.90;;
57319;SDS011;43158;51.026;18.190;2022-07-23T16:40:48;53.00;;;48.70;;
57319;SDS011;43158;51.026;18.190;2022-07-23T16:43:33;58.60;;;53.40;;
57319;SDS011;43158;51.026;18.190;2022-07-23T16:46:20;56.40;;;51.10;;
57319;SDS011;43158;51.026;18.190;2022-07-23T16:49:05;56.10;;;51.10;;